sensor_id;sensor_type;location;lat;lon;timestamp;P1;durP1;ratioP1;P2;durP2;ratioP2
17510;SDS011;8873;48.818;9.422;2023-01-28T00:01:32;12.47;;;6.60;;
17510;SDS011;8873;48.818;9.422;2023-01-28T00:03:59;15.57;;;6.73;;
17510;SDS011;8873;48.818;9.422;2023-01-28T00:06:27;17.20;;;7.63;;
17510;SDS011;8873;48.818;9.422;2023-01-28T00:08:54;14.57;;;6.83;;
17510;SDS011;8873;48.818;9.422;2023-01-28T00:11:23;12.73;;;7.23;;
17510;SDS011;8873;48.818;9.422;2023-01-28T00:13:51;14.43;;;7.23;;
17510;SDS011;8873;48.818;9.422;2023-01-28T00:16:19;14.80;;;7.30;;
17510;SDS011;8873;48.818;9.422;2023-01-28T00:18:47;15.80;;;7.20;;
17510;SDS011;8873;48.818;9.422;2023-01-28T00:21:15;15.10;;;7.20;;
17510;SDS011;8873;48.818;9.422;2023-01-28T00:23:42;15.37;;;6.77;;
17510;SDS011;8873;48.818;9.422;2023-01-28T00:26:13;13.00;;;7.40;;
17510;SDS011;8873;48.818;9.422;2023-01-28T00:28:45;16.67;;;7.53;;
17510;SDS011;8873;48.818;9.422;2023-01-28T00:31:14;14.30;;;7.47;;
17510;SDS011;8873;48.818;9.422;2023-01-28T00:33:42;15.90;;;7.43;;
17510;SDS011;8873;48.818;9.422;2023-01-28T00:36:10;11.87;;;6.27;;
17510;SDS011;8873;48.818;9.422;2023-01-28T00:38:38;14.13;;;7.20;;
17510;SDS011;8873;48.818;9.422;2023-01-28T00:41:06;14.60;;;7.67;;
17510;SDS011;8873;48.818;9.422;2023-01-28T00:43:34;14.07;;;7.43;;
17510;SDS011;8873;48.818;9.422;2023-01-28T00:46:03;13.17;;;6.43;;
17510;SDS011;8873;48.818;9.422;2023-01-28T00:48:32;15.60;;;7.43;;
17510;SDS011;8873;48.818;9.422;2023-01-28T00:50:59;12.67;;;6.30;;
17510;SDS011;8873;48.818;9.422;2023-01-28T00:53:27;14.27;;;6.40;;
17510;SDS011;8873;48.818;9.422;2023-01-28T00:55:54;11.60;;;6.60;;
17510;SDS011;8873;48.818;9.422;2023-01-28T00:58:22;11.70;;;5.93;;
17510;SDS011;8873;48.818;9.422;2023-01-28T01:00:50;10.83;;;6.23;;
17510;SDS011;8873;48.818;9.422;2023-01-28T01:03:19;11.47;;;5.73;;
17510;SDS011;8873;48.818;9.422;2023-01-28T01:05:46;13.43;;;6.80;;
17510;SDS011;8873;48.818;9.422;2023-01-28T01:08:14;14.33;;;6.50;;
17510;SDS011;8873;48.818;9.422;2023-01-28T01:10:41;11.57;;;6.37;;
17510;SDS011;8873;48.818;9.422;2023-01-28T01:13:09;9.47;;;5.87;;
17510;SDS011;8873;48.818;9.422;2023-01-28T01:15:36;9.93;;;6.07;;
17510;SDS011;8873;48.818;9.422;2023-01-28T01:18:04;11.83;;;5.97;;
17510;SDS011;8873;48.818;9.422;2023-01-28T01:20:33;12.77;;;6.20;;
17510;SDS011;8873;48.818;9.422;2023-01-28T01:23:05;10.53;;;6.20;;
17510;SDS011;8873;48.818;9.422;2023-01-28T01:25:32;11.87;;;6.10;;
17510;SDS011;8873;48.818;9.422;2023-01-28T01:28:00;11.23;;;6.10;;
17510;SDS011;8873;48.818;9.422;2023-01-28T01:30:27;11.13;;;6.00;;
17510;SDS011;8873;48.818;9.422;2023-01-28T01:32:56;10.20;;;6.20;;
17510;SDS011;8873;48.818;9.422;2023-01-28T01:35:23;14.80;;;6.23;;
17510;SDS011;8873;48.818;9.422;2023-01-28T01:37:52;10.33;;;5.90;;
17510;SDS011;8873;48.818;9.422;2023-01-28T01:40:20;12.37;;;6.10;;
17510;SDS011;8873;48.818;9.422;2023-01-28T01:42:47;11.63;;;6.37;;
17510;SDS011;8873;48.818;9.422;2023-01-28T01:45:15;9.57;;;5.90;;
17510;SDS011;8873;48.818;9.422;2023-01-28T01:47:44;11.33;;;5.97;;
17510;SDS011;8873;48.818;9.422;2023-01-28T01:50:15;9.53;;;5.53;;
17510;SDS011;8873;48.818;9.422;2023-01-28T01:52:45;10.67;;;5.67;;
17510;SDS011;8873;48.818;9.422;2023-01-28T01:55:15;9.43;;;6.27;;
17510;SDS011;8873;48.818;9.422;2023-01-28T01:57:45;9.67;;;5.80;;
17510;SDS011;8873;48.818;9.422;2023-01-28T02:00:14;11.03;;;5.97;;
17510;SDS011;8873;48.818;9.422;2023-01-28T02:02:42;10.53;;;5.40;;
17510;SDS011;8873;48.818;9.422;2023-01-28T02:05:11;10.87;;;5.53;;
17510;SDS011;8873;48.818;9.422;2023-01-28T02:07:39;9.57;;;5.57;;
17510;SDS011;8873;48.818;9.422;2023-01-28T02:10:08;10.13;;;5.50;;
17510;SDS011;8873;48.818;9.422;2023-01-28T02:12:38;9.03;;;5.67;;
17510;SDS011;8873;48.818;9.422;2023-01-28T02:15:07;9.63;;;5.37;;
17510;SDS011;8873;48.818;9.422;2023-01-28T02:17:35;9.77;;;5.40;;
17510;SDS011;8873;48.818;9.422;2023-01-28T02:20:04;12.43;;;5.83;;
17510;SDS011;8873;48.818;9.422;2023-01-28T02:22:49;11.07;;;5.90;;
17510;SDS011;8873;48.818;9.422;2023-01-28T02:28:19;9.97;;;5.83;;
17510;SDS011;8873;48.818;9.422;2023-01-28T02:30:50;9.93;;;4.80;;
17510;SDS011;8873;48.818;9.422;2023-01-28T02:33:21;17.13;;;6.20;;
17510;SDS011;8873;48.818;9.422;2023-01-28T02:35:52;12.63;;;6.57;;
17510;SDS011;8873;48.818;9.422;2023-01-28T02:38:22;9.67;;;5.50;;
17510;SDS011;8873;48.818;9.422;2023-01-28T02:40:53;8.80;;;5.43;;
17510;SDS011;8873;48.818;9.422;2023-01-28T02:43:34;10.70;;;6.17;;
17510;SDS011;8873;48.818;9.422;2023-01-28T02:46:04;12.87;;;5.87;;
17510;SDS011;8873;48.818;9.422;2023-01-28T02:48:54;9.87;;;6.00;;
17510;SDS011;8873;48.818;9.422;2023-01-28T02:51:23;12.07;;;5.57;;
17510;SDS011;8873;48.818;9.422;2023-01-28T02:53:54;9.83;;;6.00;;
17510;SDS011;8873;48.818;9.422;2023-01-28T02:56:26;12.47;;;5.53;;
17510;SDS011;8873;48.818;9.422;2023-01-28T02:58:57;11.33;;;5.70;;
17510;SDS011;8873;48.818;9.422;2023-01-28T03:01:27;11.50;;;5.80;;
17510;SDS011;8873;48.818;9.422;2023-01-28T03:04:00;11.43;;;6.50;;
17510;SDS011;8873;48.818;9.422;2023-01-28T03:06:29;11.67;;;6.07;;
17510;SDS011;8873;48.818;9.422;2023-01-28T03:09:01;10.77;;;6.03;;
17510;SDS011;8873;48.818;9.422;2023-01-28T03:11:48;9.67;;;5.87;;
17510;SDS011;8873;48.818;9.422;2023-01-28T03:14:36;11.20;;;6.50;;
17510;SDS011;8873;48.818;9.422;2023-01-28T03:17:23;14.23;;;6.70;;
17510;SDS011;8873;48.818;9.422;2023-01-28T03:20:10;11.07;;;5.90;;
17510;SDS011;8873;48.818;9.422;2023-01-28T03:22:56;12.40;;;6.53;;
17510;SDS011;8873;48.818;9.422;2023-01-28T03:25:43;12.33;;;6.53;;
17510;SDS011;8873;48.818;9.422;2023-01-28T03:28:28;13.47;;;7.17;;
17510;SDS011;8873;48.818;9.422;2023-01-28T03:31:16;12.27;;;6.27;;
17510;SDS011;8873;48.818;9.422;2023-01-28T03:34:02;10.70;;;6.27;;
17510;SDS011;8873;48.818;9.422;2023-01-28T03:36:48;14.13;;;7.53;;
17510;SDS011;8873;48.818;9.422;2023-01-28T03:39:16;17.17;;;7.43;;
17510;SDS011;8873;48.818;9.422;2023-01-28T03:41:54;13.40;;;7.17;;
17510;SDS011;8873;48.818;9.422;2023-01-28T03:44:22;13.17;;;6.93;;
17510;SDS011;8873;48.818;9.422;2023-01-28T03:47:09;13.60;;;6.90;;
17510;SDS011;8873;48.818;9.422;2023-01-28T03:49:37;13.13;;;6.97;;
17510;SDS011;8873;48.818;9.422;2023-01-28T03:52:05;15.33;;;7.40;;
17510;SDS011;8873;48.818;9.422;2023-01-28T03:54:32;14.03;;;7.33;;
17510;SDS011;8873;48.818;9.422;2023-01-28T03:57:00;17.03;;;7.03;;
17510;SDS011;8873;48.818;9.422;2023-01-28T03:59:27;15.73;;;7.30;;
17510;SDS011;8873;48.818;9.422;2023-01-28T04:01:55;12.60;;;6.87;;
17510;SDS011;8873;48.818;9.422;2023-01-28T04:04:24;12.50;;;6.60;;
17510;SDS011;8873;48.818;9.422;2023-01-28T04:06:52;13.30;;;7.10;;
17510;SDS011;8873;48.818;9.422;2023-01-28T04:09:20;13.60;;;6.80;;
17510;SDS011;8873;48.818;9.422;2023-01-28T04:11:48;13.40;;;6.80;;
17510;SDS011;8873;48.818;9.422;2023-01-28T04:14:16;14.93;;;7.60;;
17510;SDS011;8873;48.818;9.422;2023-01-28T04:16:44;13.93;;;7.30;;
17510;SDS011;8873;48.818;9.422;2023-01-28T04:19:11;15.53;;;7.47;;
17510;SDS011;8873;48.818;9.422;2023-01-28T04:21:41;12.70;;;6.77;;
17510;SDS011;8873;48.818;9.422;2023-01-28T04:24:08;13.00;;;6.37;;
17510;SDS011;8873;48.818;9.422;2023-01-28T04:26:36;13.27;;;6.70;;
17510;SDS011;8873;48.818;9.422;2023-01-28T04:29:03;12.87;;;6.83;;
17510;SDS011;8873;48.818;9.422;2023-01-28T04:31:31;13.10;;;6.57;;
17510;SDS011;8873;48.818;9.422;2023-01-28T04:33:59;12.17;;;7.00;;
17510;SDS011;8873;48.818;9.422;2023-01-28T04:36:26;13.10;;;6.60;;
17510;SDS011;8873;48.818;9.422;2023-01-28T04:38:55;14.30;;;7.20;;
17510;SDS011;8873;48.818;9.422;2023-01-28T04:41:23;9.83;;;6.03;;
17510;SDS011;8873;48.818;9.422;2023-01-28T04:43:51;12.47;;;6.90;;
17510;SDS011;8873;48.818;9.422;2023-01-28T04:46:18;15.17;;;7.13;;
17510;SDS011;8873;48.818;9.422;2023-01-28T04:48:46;13.87;;;7.00;;
17510;SDS011;8873;48.818;9.422;2023-01-28T04:51:13;16.00;;;7.00;;
17510;SDS011;8873;48.818;9.422;2023-01-28T04:53:41;14.43;;;6.90;;
17510;SDS011;8873;48.818;9.422;2023-01-28T04:56:10;13.10;;;7.00;;
17510;SDS011;8873;48.818;9.422;2023-01-28T04:58:37;15.17;;;7.47;;
17510;SDS011;8873;48.818;9.422;2023-01-28T05:01:05;10.50;;;6.47;;
17510;SDS011;8873;48.818;9.422;2023-01-28T05:03:32;15.50;;;7.43;;
17510;SDS011;8873;48.818;9.422;2023-01-28T05:06:01;17.07;;;7.90;;
17510;SDS011;8873;48.818;9.422;2023-01-28T05:08:30;13.77;;;7.73;;
17510;SDS011;8873;48.818;9.422;2023-01-28T05:10:57;15.80;;;7.93;;
17510;SDS011;8873;48.818;9.422;2023-01-28T05:13:26;13.47;;;7.53;;
17510;SDS011;8873;48.818;9.422;2023-01-28T05:15:54;15.23;;;7.87;;
17510;SDS011;8873;48.818;9.422;2023-01-28T05:18:21;13.70;;;7.80;;
17510;SDS011;8873;48.818;9.422;2023-01-28T05:20:49;14.40;;;7.23;;
17510;SDS011;8873;48.818;9.422;2023-01-28T05:23:17;14.73;;;8.00;;
17510;SDS011;8873;48.818;9.422;2023-01-28T05:25:44;14.63;;;7.57;;
17510;SDS011;8873;48.818;9.422;2023-01-28T05:28:12;14.97;;;7.73;;
17510;SDS011;8873;48.818;9.422;2023-01-28T05:30:41;13.23;;;7.27;;
17510;SDS011;8873;48.818;9.422;2023-01-28T05:33:08;17.10;;;8.30;;
17510;SDS011;8873;48.818;9.422;2023-01-28T05:35:36;14.10;;;7.90;;
17510;SDS011;8873;48.818;9.422;2023-01-28T05:38:03;16.60;;;8.23;;
17510;SDS011;8873;48.818;9.422;2023-01-28T05:40:31;17.90;;;9.00;;
17510;SDS011;8873;48.818;9.422;2023-01-28T05:42:58;17.87;;;9.00;;
17510;SDS011;8873;48.818;9.422;2023-01-28T05:45:28;14.30;;;8.03;;
17510;SDS011;8873;48.818;9.422;2023-01-28T05:47:57;17.27;;;8.37;;
17510;SDS011;8873;48.818;9.422;2023-01-28T05:50:25;15.53;;;7.77;;
17510;SDS011;8873;48.818;9.422;2023-01-28T05:53:00;13.80;;;7.37;;
17510;SDS011;8873;48.818;9.422;2023-01-28T05:55:29;15.70;;;7.80;;
17510;SDS011;8873;48.818;9.422;2023-01-28T05:57:57;12.83;;;7.20;;
17510;SDS011;8873;48.818;9.422;2023-01-28T06:00:24;12.37;;;7.60;;
17510;SDS011;8873;48.818;9.422;2023-01-28T06:02:52;17.03;;;7.60;;
17510;SDS011;8873;48.818;9.422;2023-01-28T06:05:21;16.53;;;7.73;;
17510;SDS011;8873;48.818;9.422;2023-01-28T06:07:48;18.53;;;8.40;;
17510;SDS011;8873;48.818;9.422;2023-01-28T06:10:16;22.03;;;9.93;;
17510;SDS011;8873;48.818;9.422;2023-01-28T06:12:44;22.37;;;10.33;;
17510;SDS011;8873;48.818;9.422;2023-01-28T06:15:11;18.43;;;8.47;;
17510;SDS011;8873;48.818;9.422;2023-01-28T06:17:39;16.87;;;7.97;;
17510;SDS011;8873;48.818;9.422;2023-01-28T06:20:07;20.47;;;8.13;;
17510;SDS011;8873;48.818;9.422;2023-01-28T06:22:36;14.67;;;7.90;;
17510;SDS011;8873;48.818;9.422;2023-01-28T06:25:04;17.67;;;7.90;;
17510;SDS011;8873;48.818;9.422;2023-01-28T06:27:31;13.57;;;7.73;;
17510;SDS011;8873;48.818;9.422;2023-01-28T06:29:59;13.20;;;7.30;;
17510;SDS011;8873;48.818;9.422;2023-01-28T06:32:27;15.00;;;7.87;;
17510;SDS011;8873;48.818;9.422;2023-01-28T06:34:55;14.73;;;7.07;;
17510;SDS011;8873;48.818;9.422;2023-01-28T06:37:22;16.83;;;8.40;;
17510;SDS011;8873;48.818;9.422;2023-01-28T06:39:52;15.60;;;7.23;;
17510;SDS011;8873;48.818;9.422;2023-01-28T06:42:20;14.47;;;7.13;;
17510;SDS011;8873;48.818;9.422;2023-01-28T06:44:47;14.87;;;7.53;;
17510;SDS011;8873;48.818;9.422;2023-01-28T06:47:15;15.37;;;7.40;;
17510;SDS011;8873;48.818;9.422;2023-01-28T06:49:42;15.80;;;7.77;;
17510;SDS011;8873;48.818;9.422;2023-01-28T06:52:10;13.03;;;7.73;;
17510;SDS011;8873;48.818;9.422;2023-01-28T06:54:37;13.00;;;7.60;;
17510;SDS011;8873;48.818;9.422;2023-01-28T06:57:06;15.83;;;8.77;;
17510;SDS011;8873;48.818;9.422;2023-01-28T06:59:34;15.17;;;8.43;;
17510;SDS011;8873;48.818;9.422;2023-01-28T07:02:01;18.77;;;10.37;;
17510;SDS011;8873;48.818;9.422;2023-01-28T07:04:30;17.47;;;10.67;;
17510;SDS011;8873;48.818;9.422;2023-01-28T07:06:57;15.67;;;9.60;;
17510;SDS011;8873;48.818;9.422;2023-01-28T07:09:25;18.03;;;10.37;;
17510;SDS011;8873;48.818;9.422;2023-01-28T07:11:52;20.63;;;8.40;;
17510;SDS011;8873;48.818;9.422;2023-01-28T07:14:21;14.70;;;8.20;;
17510;SDS011;8873;48.818;9.422;2023-01-28T07:16:49;16.60;;;8.57;;
17510;SDS011;8873;48.818;9.422;2023-01-28T07:19:17;16.20;;;7.93;;
17510;SDS011;8873;48.818;9.422;2023-01-28T07:21:51;18.03;;;8.47;;
17510;SDS011;8873;48.818;9.422;2023-01-28T07:24:18;16.23;;;8.00;;
17510;SDS011;8873;48.818;9.422;2023-01-28T07:26:46;22.40;;;10.13;;
17510;SDS011;8873;48.818;9.422;2023-01-28T07:29:13;19.93;;;10.00;;
17510;SDS011;8873;48.818;9.422;2023-01-28T07:31:42;18.50;;;9.13;;
17510;SDS011;8873;48.818;9.422;2023-01-28T07:34:10;15.57;;;8.37;;
17510;SDS011;8873;48.818;9.422;2023-01-28T07:36:38;14.33;;;7.87;;
17510;SDS011;8873;48.818;9.422;2023-01-28T07:39:05;18.20;;;9.20;;
17510;SDS011;8873;48.818;9.422;2023-01-28T07:41:33;20.03;;;9.17;;
17510;SDS011;8873;48.818;9.422;2023-01-28T07:44:01;19.07;;;9.07;;
17510;SDS011;8873;48.818;9.422;2023-01-28T07:46:28;17.83;;;8.47;;
17510;SDS011;8873;48.818;9.422;2023-01-28T07:48:57;18.70;;;8.80;;
17510;SDS011;8873;48.818;9.422;2023-01-28T07:51:25;21.47;;;9.57;;
17510;SDS011;8873;48.818;9.422;2023-01-28T07:53:52;23.40;;;10.37;;
17510;SDS011;8873;48.818;9.422;2023-01-28T07:56:20;25.23;;;11.33;;
17510;SDS011;8873;48.818;9.422;2023-01-28T07:58:48;40.33;;;17.67;;
17510;SDS011;8873;48.818;9.422;2023-01-28T08:01:16;33.57;;;15.03;;
17510;SDS011;8873;48.818;9.422;2023-01-28T08:03:44;26.57;;;12.80;;
17510;SDS011;8873;48.818;9.422;2023-01-28T08:06:13;22.10;;;10.77;;
17510;SDS011;8873;48.818;9.422;2023-01-28T08:08:41;21.57;;;9.60;;
17510;SDS011;8873;48.818;9.422;2023-01-28T08:11:08;29.70;;;13.97;;
17510;SDS011;8873;48.818;9.422;2023-01-28T08:13:36;31.50;;;16.03;;
17510;SDS011;8873;48.818;9.422;2023-01-28T08:16:04;22.17;;;10.83;;
17510;SDS011;8873;48.818;9.422;2023-01-28T08:18:32;17.23;;;8.20;;
17510;SDS011;8873;48.818;9.422;2023-01-28T08:21:00;18.30;;;7.60;;
17510;SDS011;8873;48.818;9.422;2023-01-28T08:23:28;16.40;;;8.57;;
17510;SDS011;8873;48.818;9.422;2023-01-28T08:25:56;16.37;;;8.07;;
17510;SDS011;8873;48.818;9.422;2023-01-28T08:28:24;18.97;;;8.80;;
17510;SDS011;8873;48.818;9.422;2023-01-28T08:30:52;17.20;;;8.53;;
17510;SDS011;8873;48.818;9.422;2023-01-28T08:33:20;17.67;;;8.80;;
17510;SDS011;8873;48.818;9.422;2023-01-28T08:35:49;15.30;;;8.70;;
17510;SDS011;8873;48.818;9.422;2023-01-28T08:38:16;18.23;;;8.50;;
17510;SDS011;8873;48.818;9.422;2023-01-28T08:40:46;19.50;;;8.83;;
17510;SDS011;8873;48.818;9.422;2023-01-28T08:43:15;16.13;;;8.20;;
17510;SDS011;8873;48.818;9.422;2023-01-28T08:45:43;20.70;;;9.13;;
17510;SDS011;8873;48.818;9.422;2023-01-28T08:48:11;21.03;;;9.30;;
17510;SDS011;8873;48.818;9.422;2023-01-28T08:50:40;28.33;;;10.70;;
17510;SDS011;8873;48.818;9.422;2023-01-28T08:53:09;21.57;;;10.07;;
17510;SDS011;8873;48.818;9.422;2023-01-28T08:55:37;17.10;;;9.03;;
17510;SDS011;8873;48.818;9.422;2023-01-28T08:58:08;20.70;;;10.03;;
17510;SDS011;8873;48.818;9.422;2023-01-28T09:00:39;19.17;;;9.43;;
17510;SDS011;8873;48.818;9.422;2023-01-28T09:03:09;18.50;;;8.97;;
17510;SDS011;8873;48.818;9.422;2023-01-28T09:05:37;31.93;;;13.20;;
17510;SDS011;8873;48.818;9.422;2023-01-28T09:08:05;29.17;;;11.87;;
17510;SDS011;8873;48.818;9.422;2023-01-28T09:10:34;20.80;;;10.47;;
17510;SDS011;8873;48.818;9.422;2023-01-28T09:13:07;23.13;;;9.73;;
17510;SDS011;8873;48.818;9.422;2023-01-28T09:15:35;20.67;;;9.87;;
17510;SDS011;8873;48.818;9.422;2023-01-28T09:18:03;18.13;;;9.57;;
17510;SDS011;8873;48.818;9.422;2023-01-28T09:20:31;19.37;;;8.47;;
17510;SDS011;8873;48.818;9.422;2023-01-28T09:22:59;15.83;;;8.43;;
17510;SDS011;8873;48.818;9.422;2023-01-28T09:25:27;15.63;;;8.90;;
17510;SDS011;8873;48.818;9.422;2023-01-28T09:27:58;17.07;;;8.10;;
17510;SDS011;8873;48.818;9.422;2023-01-28T09:30:27;17.10;;;9.07;;
17510;SDS011;8873;48.818;9.422;2023-01-28T09:32:55;17.73;;;8.97;;
17510;SDS011;8873;48.818;9.422;2023-01-28T09:35:23;20.63;;;10.10;;
17510;SDS011;8873;48.818;9.422;2023-01-28T09:37:53;17.87;;;8.63;;
17510;SDS011;8873;48.818;9.422;2023-01-28T09:40:24;18.93;;;8.70;;
17510;SDS011;8873;48.818;9.422;2023-01-28T09:42:58;16.53;;;8.27;;
17510;SDS011;8873;48.818;9.422;2023-01-28T09:45:37;17.80;;;8.80;;
17510;SDS011;8873;48.818;9.422;2023-01-28T09:48:12;16.20;;;8.13;;
17510;SDS011;8873;48.818;9.422;2023-01-28T09:50:41;16.60;;;7.78;;
17510;SDS011;8873;48.818;9.422;2023-01-28T09:53:11;19.53;;;8.17;;
17510;SDS011;8873;48.818;9.422;2023-01-28T09:55:40;14.13;;;7.70;;
17510;SDS011;8873;48.818;9.422;2023-01-28T09:58:10;17.57;;;8.40;;
17510;SDS011;8873;48.818;9.422;2023-01-28T10:00:40;16.47;;;8.43;;
17510;SDS011;8873;48.818;9.422;2023-01-28T10:03:20;17.67;;;8.47;;
17510;SDS011;8873;48.818;9.422;2023-01-28T10:05:51;18.60;;;8.97;;
17510;SDS011;8873;48.818;9.422;2023-01-28T10:08:27;18.43;;;8.77;;
17510;SDS011;8873;48.818;9.422;2023-01-28T10:11:01;19.10;;;8.93;;
17510;SDS011;8873;48.818;9.422;2023-01-28T10:13:31;19.27;;;9.03;;
17510;SDS011;8873;48.818;9.422;2023-01-28T10:16:07;24.70;;;10.80;;
17510;SDS011;8873;48.818;9.422;2023-01-28T10:18:38;18.93;;;8.60;;
17510;SDS011;8873;48.818;9.422;2023-01-28T10:21:10;19.43;;;9.03;;
17510;SDS011;8873;48.818;9.422;2023-01-28T10:26:23;18.40;;;8.77;;
17510;SDS011;8873;48.818;9.422;2023-01-28T10:28:53;18.57;;;9.47;;
17510;SDS011;8873;48.818;9.422;2023-01-28T10:31:22;21.50;;;9.30;;
17510;SDS011;8873;48.818;9.422;2023-01-28T10:33:53;19.77;;;9.47;;
17510;SDS011;8873;48.818;9.422;2023-01-28T10:36:21;22.50;;;9.40;;
17510;SDS011;8873;48.818;9.422;2023-01-28T10:38:50;19.70;;;9.73;;
17510;SDS011;8873;48.818;9.422;2023-01-28T10:41:19;21.27;;;9.83;;
17510;SDS011;8873;48.818;9.422;2023-01-28T10:43:47;20.63;;;9.57;;
17510;SDS011;8873;48.818;9.422;2023-01-28T10:46:16;24.37;;;10.13;;
17510;SDS011;8873;48.818;9.422;2023-01-28T10:48:47;21.23;;;10.33;;
17510;SDS011;8873;48.818;9.422;2023-01-28T10:51:28;21.10;;;10.03;;
17510;SDS011;8873;48.818;9.422;2023-01-28T10:53:56;23.80;;;9.60;;
17510;SDS011;8873;48.818;9.422;2023-01-28T10:56:24;20.47;;;9.90;;
17510;SDS011;8873;48.818;9.422;2023-01-28T10:58:57;24.97;;;9.60;;
17510;SDS011;8873;48.818;9.422;2023-01-28T11:01:37;19.70;;;9.23;;
17510;SDS011;8873;48.818;9.422;2023-01-28T11:04:12;23.63;;;10.30;;
17510;SDS011;8873;48.818;9.422;2023-01-28T11:06:41;21.90;;;9.90;;
17510;SDS011;8873;48.818;9.422;2023-01-28T11:09:19;21.60;;;9.80;;
17510;SDS011;8873;48.818;9.422;2023-01-28T11:11:47;21.03;;;9.90;;
17510;SDS011;8873;48.818;9.422;2023-01-28T11:14:18;21.90;;;9.37;;
17510;SDS011;8873;48.818;9.422;2023-01-28T11:16:46;21.80;;;10.17;;
17510;SDS011;8873;48.818;9.422;2023-01-28T11:19:16;24.20;;;11.20;;
17510;SDS011;8873;48.818;9.422;2023-01-28T11:21:49;30.07;;;10.27;;
17510;SDS011;8873;48.818;9.422;2023-01-28T11:24:18;21.80;;;9.60;;
17510;SDS011;8873;48.818;9.422;2023-01-28T11:26:47;18.63;;;9.10;;
17510;SDS011;8873;48.818;9.422;2023-01-28T11:29:20;19.33;;;9.07;;
17510;SDS011;8873;48.818;9.422;2023-01-28T11:31:54;20.67;;;9.30;;
17510;SDS011;8873;48.818;9.422;2023-01-28T11:34:25;17.87;;;9.10;;
17510;SDS011;8873;48.818;9.422;2023-01-28T11:36:54;19.37;;;9.03;;
17510;SDS011;8873;48.818;9.422;2023-01-28T11:39:24;17.87;;;9.63;;
17510;SDS011;8873;48.818;9.422;2023-01-28T11:41:54;20.20;;;8.87;;
17510;SDS011;8873;48.818;9.422;2023-01-28T11:44:29;22.03;;;8.83;;
17510;SDS011;8873;48.818;9.422;2023-01-28T11:49:45;18.77;;;9.05;;
17510;SDS011;8873;48.818;9.422;2023-01-28T11:52:20;19.53;;;9.57;;
17510;SDS011;8873;48.818;9.422;2023-01-28T11:54:53;22.90;;;9.40;;
17510;SDS011;8873;48.818;9.422;2023-01-28T11:57:25;23.83;;;9.63;;
17510;SDS011;8873;48.818;9.422;2023-01-28T11:59:58;19.93;;;9.57;;
17510;SDS011;8873;48.818;9.422;2023-01-28T12:02:34;21.35;;;9.68;;
17510;SDS011;8873;48.818;9.422;2023-01-28T12:05:13;20.43;;;9.30;;
17510;SDS011;8873;48.818;9.422;2023-01-28T12:07:44;18.97;;;9.10;;
17510;SDS011;8873;48.818;9.422;2023-01-28T12:10:17;19.50;;;9.20;;
17510;SDS011;8873;48.818;9.422;2023-01-28T12:12:50;20.07;;;9.97;;
17510;SDS011;8873;48.818;9.422;2023-01-28T12:15:39;22.90;;;10.37;;
17510;SDS011;8873;48.818;9.422;2023-01-28T12:18:15;18.50;;;9.87;;
17510;SDS011;8873;48.818;9.422;2023-01-28T12:20:48;23.10;;;10.17;;
17510;SDS011;8873;48.818;9.422;2023-01-28T12:23:20;23.07;;;10.30;;
17510;SDS011;8873;48.818;9.422;2023-01-28T12:28:50;26.27;;;10.80;;
17510;SDS011;8873;48.818;9.422;2023-01-28T12:31:32;27.23;;;10.43;;
17510;SDS011;8873;48.818;9.422;2023-01-28T12:34:06;19.77;;;9.75;;
17510;SDS011;8873;48.818;9.422;2023-01-28T12:36:45;26.60;;;10.97;;
17510;SDS011;8873;48.818;9.422;2023-01-28T12:39:17;26.13;;;10.87;;
17510;SDS011;8873;48.818;9.422;2023-01-28T12:44:18;25.80;;;11.23;;
17510;SDS011;8873;48.818;9.422;2023-01-28T12:46:48;29.70;;;12.93;;
17510;SDS011;8873;48.818;9.422;2023-01-28T12:49:18;28.97;;;11.77;;
17510;SDS011;8873;48.818;9.422;2023-01-28T12:51:53;25.97;;;11.63;;
17510;SDS011;8873;48.818;9.422;2023-01-28T12:54:24;25.03;;;10.23;;
17510;SDS011;8873;48.818;9.422;2023-01-28T12:56:54;20.67;;;9.10;;
17510;SDS011;8873;48.818;9.422;2023-01-28T12:59:24;20.07;;;9.10;;
17510;SDS011;8873;48.818;9.422;2023-01-28T13:01:56;24.13;;;9.57;;
17510;SDS011;8873;48.818;9.422;2023-01-28T13:04:30;25.67;;;9.10;;
17510;SDS011;8873;48.818;9.422;2023-01-28T13:07:01;19.73;;;8.40;;
17510;SDS011;8873;48.818;9.422;2023-01-28T13:09:29;17.13;;;8.40;;
17510;SDS011;8873;48.818;9.422;2023-01-28T13:11:57;20.05;;;8.20;;
17510;SDS011;8873;48.818;9.422;2023-01-28T13:14:27;14.13;;;7.03;;
17510;SDS011;8873;48.818;9.422;2023-01-28T13:16:55;17.73;;;8.40;;
17510;SDS011;8873;48.818;9.422;2023-01-28T13:19:23;15.93;;;7.90;;
17510;SDS011;8873;48.818;9.422;2023-01-28T13:21:51;16.80;;;7.03;;
17510;SDS011;8873;48.818;9.422;2023-01-28T13:24:22;16.43;;;7.20;;
17510;SDS011;8873;48.818;9.422;2023-01-28T13:26:56;16.67;;;7.17;;
17510;SDS011;8873;48.818;9.422;2023-01-28T13:29:28;15.20;;;7.57;;
17510;SDS011;8873;48.818;9.422;2023-01-28T13:31:57;15.93;;;7.57;;
17510;SDS011;8873;48.818;9.422;2023-01-28T13:34:30;18.30;;;7.90;;
17510;SDS011;8873;48.818;9.422;2023-01-28T13:37:00;15.13;;;7.77;;
17510;SDS011;8873;48.818;9.422;2023-01-28T13:39:32;20.57;;;8.20;;
17510;SDS011;8873;48.818;9.422;2023-01-28T13:42:07;17.07;;;7.27;;
17510;SDS011;8873;48.818;9.422;2023-01-28T13:44:35;15.47;;;7.20;;
17510;SDS011;8873;48.818;9.422;2023-01-28T13:47:14;15.10;;;7.40;;
17510;SDS011;8873;48.818;9.422;2023-01-28T13:49:43;19.63;;;8.57;;
17510;SDS011;8873;48.818;9.422;2023-01-28T13:52:12;12.40;;;6.73;;
17510;SDS011;8873;48.818;9.422;2023-01-28T13:54:43;16.93;;;8.47;;
17510;SDS011;8873;48.818;9.422;2023-01-28T13:59:59;21.97;;;8.83;;
17510;SDS011;8873;48.818;9.422;2023-01-28T14:02:38;12.50;;;6.43;;
17510;SDS011;8873;48.818;9.422;2023-01-28T14:05:13;13.27;;;7.07;;
17510;SDS011;8873;48.818;9.422;2023-01-28T14:07:52;13.90;;;7.00;;
17510;SDS011;8873;48.818;9.422;2023-01-28T14:10:32;15.23;;;7.13;;
17510;SDS011;8873;48.818;9.422;2023-01-28T14:13:14;15.63;;;7.30;;
17510;SDS011;8873;48.818;9.422;2023-01-28T14:15:56;12.40;;;7.33;;
17510;SDS011;8873;48.818;9.422;2023-01-28T14:18:25;14.93;;;7.63;;
17510;SDS011;8873;48.818;9.422;2023-01-28T14:20:54;14.00;;;7.50;;
17510;SDS011;8873;48.818;9.422;2023-01-28T14:23:22;13.70;;;6.80;;
17510;SDS011;8873;48.818;9.422;2023-01-28T14:26:03;13.57;;;7.90;;
17510;SDS011;8873;48.818;9.422;2023-01-28T14:28:34;12.33;;;6.87;;
17510;SDS011;8873;48.818;9.422;2023-01-28T14:31:06;11.70;;;6.37;;
17510;SDS011;8873;48.818;9.422;2023-01-28T14:33:36;15.47;;;6.77;;
17510;SDS011;8873;48.818;9.422;2023-01-28T14:36:04;11.33;;;6.23;;
17510;SDS011;8873;48.818;9.422;2023-01-28T14:38:32;13.33;;;6.50;;
17510;SDS011;8873;48.818;9.422;2023-01-28T14:41:05;10.40;;;6.67;;
17510;SDS011;8873;48.818;9.422;2023-01-28T14:43:34;11.00;;;6.20;;
17510;SDS011;8873;48.818;9.422;2023-01-28T14:46:06;11.53;;;5.90;;
17510;SDS011;8873;48.818;9.422;2023-01-28T14:48:37;13.27;;;6.43;;
17510;SDS011;8873;48.818;9.422;2023-01-28T14:51:12;9.67;;;5.97;;
17510;SDS011;8873;48.818;9.422;2023-01-28T14:53:45;14.53;;;5.80;;
17510;SDS011;8873;48.818;9.422;2023-01-28T14:56:19;13.27;;;6.03;;
17510;SDS011;8873;48.818;9.422;2023-01-28T14:58:49;10.37;;;6.00;;
17510;SDS011;8873;48.818;9.422;2023-01-28T15:01:19;11.07;;;6.10;;
17510;SDS011;8873;48.818;9.422;2023-01-28T15:03:47;11.93;;;6.33;;
17510;SDS011;8873;48.818;9.422;2023-01-28T15:06:15;10.03;;;5.20;;
17510;SDS011;8873;48.818;9.422;2023-01-28T15:08:42;9.37;;;5.93;;
17510;SDS011;8873;48.818;9.422;2023-01-28T15:11:11;13.07;;;5.80;;
17510;SDS011;8873;48.818;9.422;2023-01-28T15:13:41;8.80;;;5.40;;
17510;SDS011;8873;48.818;9.422;2023-01-28T15:16:12;9.03;;;5.87;;
17510;SDS011;8873;48.818;9.422;2023-01-28T15:18:42;8.07;;;5.43;;
17510;SDS011;8873;48.818;9.422;2023-01-28T15:21:11;7.90;;;5.00;;
17510;SDS011;8873;48.818;9.422;2023-01-28T15:23:40;9.13;;;5.67;;